Time;durP1;ratioP1;P1;durP2;ratioP2;P2;SDS_P1;SDS_P2;PMS_P1;PMS_P2;Temp;Humidity;BMP_temperature;BMP_pressure;BME280_temperature;BME280_humidity;BME280_pressure;Samples;Min_cycle;Max_cycle;Signal;HPM_P1;HPM_P2
2021/11/27 00:02:17;;;;;;;15.47;12.10;;;;;;;3.32;83.60;98445.91;5040925;28;20181;-74
2021/11/27 00:04:43;;;;;;;17.27;13.43;;;;;;;3.35;82.84;98445.91;5040364;28;20554;-73
2021/11/27 00:07:08;;;;;;;14.03;12.13;;;;;;;3.35;82.68;98439.91;5040127;28;20175;-73
2021/11/27 00:09:34;;;;;;;15.30;13.00;;;;;;;3.56;82.55;98440.78;5041081;28;20583;-72
2021/11/27 00:11:59;;;;;;;14.90;11.60;;;;;;;3.10;83.99;98444.13;5040136;28;20174;-71
2021/11/27 00:14:25;;;;;;;15.43;12.97;;;;;;;3.45;82.75;98428.75;5040210;28;20197;-72
2021/11/27 00:16:52;;;;;;;16.67;13.20;;;;;;;3.78;82.33;98434.78;5023299;28;20174;-72
2021/11/27 00:19:18;;;;;;;12.87;11.43;;;;;;;3.51;82.28;98435.63;5040186;28;20594;-70
2021/11/27 00:21:44;;;;;;;16.50;12.20;;;;;;;3.65;82.38;98426.19;5039834;28;20496;-71
2021/11/27 00:24:09;;;;;;;18.10;14.37;;;;;;;3.89;81.84;98416.72;5040543;28;20259;-71
2021/11/27 00:26:35;;;;;;;15.97;12.10;;;;;;;3.63;81.08;98429.63;5022824;28;20421;-71
2021/11/27 00:29:00;;;;;;;16.20;12.53;;;;;;;3.33;82.25;98428.75;5040060;28;20214;-70
2021/11/27 00:31:27;;;;;;;15.70;13.57;;;;;;;3.57;81.77;98429.63;5040288;28;20178;-70
2021/11/27 00:33:54;;;;;;;14.13;11.57;;;;;;;3.45;83.14;98428.75;5039430;28;20177;-70
2021/11/27 00:36:20;;;;;;;16.33;13.37;;;;;;;3.54;83.17;98423.63;5039702;28;20503;-71
2021/11/27 00:38:45;;;;;;;18.47;14.03;;;;;;;3.59;82.33;98426.19;5040139;28;20405;-70
2021/11/27 00:41:12;;;;;;;16.90;13.60;;;;;;;3.68;81.89;98420.16;5039432;28;20420;-72
2021/11/27 00:43:38;;;;;;;16.30;13.17;;;;;;;4.00;80.98;98406.41;5039561;28;20434;-71
2021/11/27 00:46:03;;;;;;;14.83;13.23;;;;;;;3.70;80.59;98413.31;5040057;28;20687;-71
2021/11/27 00:48:29;;;;;;;16.13;13.87;;;;;;;3.85;80.56;98405.53;5039648;28;20461;-71
2021/11/27 00:51:02;;;;;;;17.60;13.77;;;;;;;3.95;81.27;98397.81;5039362;28;20181;-72
2021/11/27 00:53:28;;;;;;;14.20;12.70;;;;;;;3.79;80.41;98404.69;5039306;28;20733;-71
2021/11/27 00:55:53;;;;;;;18.00;11.60;;;;;;;3.52;81.26;98406.44;5039367;28;20429;-72
2021/11/27 00:58:19;;;;;;;17.50;13.90;;;;;;;3.94;80.26;98396.97;5039473;28;20216;-72
2021/11/27 01:00:52;;;;;;;16.17;13.23;;;;;;;3.83;80.80;98408.97;5039294;28;20194;-71
2021/11/27 01:03:19;;;;;;;16.23;14.27;;;;;;;3.82;80.92;98404.72;5039101;28;20433;-72
2021/11/27 01:05:46;;;;;;;17.23;13.70;;;;;;;3.95;80.52;98401.25;5039414;28;20661;-72
2021/11/27 01:08:11;;;;;;;17.53;12.93;;;;;;;3.88;80.79;98405.56;5039073;28;20439;-71
2021/11/27 01:10:41;;;;;;;15.50;12.80;;;;;;;3.90;81.60;98405.56;5039543;28;20729;-71
2021/11/27 01:13:07;;;;;;;18.17;13.90;;;;;;;3.94;80.42;98401.25;5021767;28;20173;-72
2021/11/27 01:15:34;;;;;;;16.90;13.00;;;;;;;3.86;81.37;98398.69;5038746;28;20425;-71
2021/11/27 01:18:00;;;;;;;16.40;13.80;;;;;;;4.00;80.17;98391.78;5039327;28;20508;-72
2021/11/27 01:20:31;;;;;;;17.03;13.40;;;;;;;3.96;80.88;98397.81;5039081;28;20423;-71
2021/11/27 01:22:57;;;;;;;17.37;13.40;;;;;;;4.10;79.63;98395.22;5038925;28;20559;-72
2021/11/27 01:25:23;;;;;;;17.23;12.93;;;;;;;3.89;80.45;98390.94;5039408;28;20395;-73
2021/11/27 01:27:48;;;;;;;16.10;12.47;;;;;;;3.77;81.46;98394.38;5038596;28;20522;-72
2021/11/27 01:30:14;;;;;;;15.53;13.10;;;;;;;3.83;80.38;98399.56;5038788;28;20520;-71
2021/11/27 01:32:40;;;;;;;15.80;13.67;;;;;;;3.84;80.25;98395.25;5039101;28;20194;-74
2021/11/27 01:35:06;;;;;;;15.90;12.80;;;;;;;3.71;80.93;98397.84;5021688;28;20430;-74
2021/11/27 01:37:33;;;;;;;16.80;13.40;;;;;;;3.63;81.49;98398.72;5038564;28;20186;-74
2021/11/27 01:40:00;;;;;;;15.73;13.30;;;;;;;3.77;80.33;98409.00;5039304;28;20376;-71
2021/11/27 01:42:25;;;;;;;15.77;12.60;;;;;;;3.78;80.08;98393.53;5038694;28;20471;-71
2021/11/27 01:44:51;;;;;;;16.43;13.70;;;;;;;3.57;82.12;98396.97;5042034;28;20447;-71
2021/11/27 01:47:17;;;;;;;19.23;13.43;;;;;;;3.92;80.23;98397.81;5050467;28;20180;-72
2021/11/27 01:49:43;;;;;;;16.97;13.87;;;;;;;3.51;81.40;98405.56;5045606;28;20202;-72
2021/11/27 01:52:09;;;;;;;17.53;13.27;;;;;;;3.48;81.32;98389.28;5045372;28;20833;-71
2021/11/27 01:54:34;;;;;;;18.43;13.10;;;;;;;3.77;80.52;98396.13;5038690;28;20305;-74
2021/11/27 01:57:02;;;;;;;17.47;13.93;;;;;;;4.00;79.11;98407.25;5038420;28;20451;-75
2021/11/27 01:59:30;;;;;;;17.63;14.17;;;;;;;3.93;79.60;98402.97;5038337;28;20174;-73
2021/11/27 02:01:56;;;;;;;16.33;12.53;;;;;;;3.61;80.93;98406.41;5021366;28;20413;-73
2021/11/27 02:04:22;;;;;;;15.70;13.63;;;;;;;3.91;80.25;98401.25;5038209;28;20428;-73
2021/11/27 02:06:47;;;;;;;17.80;13.17;;;;;;;3.63;80.99;98414.19;5038280;28;20409;-71
2021/11/27 02:09:21;;;;;;;17.50;13.53;;;;;;;3.99;79.15;98392.66;5021634;28;20224;-72
2021/11/27 02:11:48;;;;;;;16.73;13.93;;;;;;;4.11;78.46;98396.06;5038280;28;20301;-72
2021/11/27 02:14:13;;;;;;;15.70;13.00;;;;;;;3.78;79.96;98408.16;5020942;28;20413;-74
2021/11/27 02:16:39;;;;;;;24.90;12.27;;;;;;;4.02;79.60;98397.81;5038063;28;20428;-74
2021/11/27 02:19:06;;;;;;;16.23;13.40;;;;;;;3.95;79.14;98401.25;5038228;28;20166;-71
2021/11/27 02:21:31;;;;;;;17.80;12.77;;;;;;;3.35;80.64;98409.00;5038213;28;20400;-71
2021/11/27 02:23:57;;;;;;;19.00;13.03;;;;;;;3.73;79.76;98415.03;5038060;28;20427;-71
2021/11/27 02:26:25;;;;;;;19.17;14.10;;;;;;;4.07;79.11;98404.66;5037991;28;20252;-72
2021/11/27 02:28:54;;;;;;;21.23;14.37;;;;;;;4.10;79.25;98394.34;5038320;28;20238;-71
2021/11/27 02:31:22;;;;;;;18.50;14.13;;;;;;;4.19;78.01;98399.47;5038067;28;20416;-71
2021/11/27 02:33:47;;;;;;;17.37;14.40;;;;;;;4.32;78.12;98392.59;5038066;28;20425;-71
2021/11/27 02:36:13;;;;;;;18.20;13.73;;;;;;;4.64;77.02;98400.22;5038477;28;20394;-70
2021/11/27 02:38:38;;;;;;;16.60;13.67;;;;;;;4.16;78.17;98394.34;5037886;28;20170;-71
2021/11/27 02:41:04;;;;;;;16.87;12.90;;;;;;;3.98;79.29;98390.94;5037877;28;20182;-71
2021/11/27 02:43:30;;;;;;;20.27;13.13;;;;;;;3.83;79.72;98394.41;5038012;28;20405;-72
2021/11/27 02:45:56;;;;;;;17.60;13.60;;;;;;;4.26;79.27;98388.28;5037837;28;20185;-71
2021/11/27 02:48:21;;;;;;;18.30;14.10;;;;;;;3.87;80.75;98382.38;5038042;28;20209;-72
2021/11/27 02:50:47;;;;;;;17.03;14.10;;;;;;;3.85;80.42;98389.25;5038162;28;20443;-71
2021/11/27 02:53:13;;;;;;;19.63;13.90;;;;;;;3.70;80.79;98390.97;5037439;28;20256;-73
2021/11/27 02:55:38;;;;;;;19.47;14.80;;;;;;;4.18;78.74;98388.31;5038891;28;20178;-70
2021/11/27 02:58:03;;;;;;;19.40;14.80;;;;;;;4.28;78.81;98390.88;5041944;28;20538;-73
2021/11/27 03:00:30;;;;;;;19.07;15.00;;;;;;;3.85;80.49;98391.81;5041560;28;20171;-70
2021/11/27 03:02:56;;;;;;;19.00;14.63;;;;;;;3.78;80.72;98388.38;5041550;28;20178;-70
2021/11/27 03:05:21;;;;;;;21.00;14.77;;;;;;;4.50;78.54;98383.91;5041760;28;20672;-71
2021/11/27 03:07:49;;;;;;;20.33;16.03;;;;;;;3.94;79.10;98385.78;5041373;28;20202;-70
2021/11/27 03:10:16;;;;;;;19.87;14.30;;;;;;;4.66;77.53;98384.72;5041459;28;20513;-74
2021/11/27 03:12:42;;;;;;;20.57;16.03;;;;;;;4.43;78.22;98384.81;5041534;28;20417;-71
2021/11/27 03:15:12;;;;;;;20.30;16.83;;;;;;;4.50;nan;98392.50;5041461;28;20420;-71
2021/11/27 03:17:38;;;;;;;20.60;15.13;;;;;;;4.03;79.85;98393.50;5041195;28;20182;-73
2021/11/27 03:20:08;;;;;;;20.33;15.83;;;;;;;4.18;79.09;98383.16;5041567;28;20733;-75
2021/11/27 03:22:34;;;;;;;16.73;14.00;;;;;;;4.46;78.44;98395.09;5040825;28;20454;-71
2021/11/27 03:25:00;;;;;;;20.17;15.20;;;;;;;4.08;79.57;98385.75;5041390;28;20413;-71
2021/11/27 03:27:25;;;;;;;19.50;15.63;;;;;;;3.98;80.58;98397.81;5041490;28;20185;-72
2021/11/27 03:29:51;;;;;;;22.13;14.50;;;;;;;3.97;79.14;98403.84;5041045;28;20439;-70
2021/11/27 03:32:17;;;;;;;17.10;14.13;;;;;;;4.40;78.27;98390.84;5040881;28;20264;-71
2021/11/27 03:34:43;;;;;;;18.33;13.80;;;;;;;3.67;80.45;98398.69;5041463;28;20178;-71
2021/11/27 03:37:09;;;;;;;22.47;15.70;;;;;;;4.22;79.37;98397.75;5041017;28;20741;-70
2021/11/27 03:39:35;;;;;;;20.37;15.07;;;;;;;3.86;79.33;98402.13;5040849;28;20416;-71
2021/11/27 03:42:05;;;;;;;21.07;15.07;;;;;;;3.83;80.88;98399.56;5041147;28;20417;-71
2021/11/27 03:44:30;;;;;;;20.97;14.57;;;;;;;4.30;79.37;98402.03;5040698;28;20216;-73
2021/11/27 03:46:59;;;;;;;19.20;14.70;;;;;;;3.69;79.68;98409.00;5040916;28;20441;-73
2021/11/27 03:49:28;;;;;;;18.53;15.00;;;;;;;3.97;80.00;98396.94;5041380;28;20248;-72
2021/11/27 03:51:54;;;;;;;19.57;14.20;;;;;;;4.17;79.58;98396.06;5040586;28;20471;-74
2021/11/27 03:54:20;;;;;;;20.10;15.60;;;;;;;3.93;80.08;98390.09;5040345;28;20469;-71
2021/11/27 03:56:46;;;;;;;21.30;14.47;;;;;;;3.79;80.95;98391.81;5041185;28;20388;-73
2021/11/27 03:59:11;;;;;;;20.90;14.70;;;;;;;3.62;79.77;98407.28;5040585;28;20487;-72
2021/11/27 04:01:37;;;;;;;23.53;16.20;;;;;;;3.68;80.56;98408.16;5040465;28;20197;-74
2021/11/27 04:04:03;;;;;;;20.03;15.23;;;;;;;3.60;81.51;98401.28;5040814;28;20162;-73
2021/11/27 04:06:30;;;;;;;22.67;16.53;;;;;;;3.67;81.30;98411.59;5040014;28;20186;-72
2021/11/27 04:08:58;;;;;;;21.97;15.00;;;;;;;3.80;81.92;98409.88;5039858;28;20815;-71
2021/11/27 04:11:23;;;;;;;22.77;16.20;;;;;;;3.40;82.67;98419.28;5040672;28;20761;-73
2021/11/27 04:13:49;;;;;;;22.43;17.53;;;;;;;3.79;80.64;98412.44;5023020;28;20417;-71
2021/11/27 04:16:14;;;;;;;22.53;16.63;;;;;;;4.30;79.37;98409.78;5040083;28;20568;-71
2021/11/27 04:18:40;;;;;;;20.27;15.30;;;;;;;3.27;82.10;98419.28;5040440;28;20408;-69
2021/11/27 04:21:05;;;;;;;23.73;15.53;;;;;;;3.83;80.80;98419.28;5022715;28;20166;-70
2021/11/27 04:23:31;;;;;;;22.97;16.70;;;;;;;3.84;82.33;98418.44;5039780;28;20182;-69
2021/11/27 04:25:56;;;;;;;25.40;17.40;;;;;;;3.64;83.28;98419.31;5039467;28;20170;-70
2021/11/27 04:28:22;;;;;;;23.90;16.80;;;;;;;3.58;82.13;98413.31;5039755;28;20252;-69
2021/11/27 04:30:47;;;;;;;26.70;16.80;;;;;;;3.11;83.65;98412.38;5040318;28;20184;-69
2021/11/27 04:33:13;;;;;;;24.73;17.80;;;;;;;3.42;83.84;98421.00;5040500;28;20201;-70
2021/11/27 04:35:39;;;;;;;26.13;18.83;;;;;;;3.59;83.04;98418.47;5039684;28;20209;-72
2021/11/27 04:38:05;;;;;;;22.10;17.17;;;;;;;3.59;82.92;98428.75;5039626;28;20228;-72
2021/11/27 04:40:37;;;;;;;22.53;16.50;;;;;;;3.46;83.92;98430.44;5040545;28;20170;-73
2021/11/27 04:43:03;;;;;;;26.70;15.70;;;;;;;3.09;84.86;98422.69;5039714;28;21560;-72
2021/11/27 04:45:29;;;;;;;21.97;16.57;;;;;;;3.48;82.96;98440.78;5039666;28;20416;-70
2021/11/27 04:47:55;;;;;;;26.07;18.33;;;;;;;3.26;83.80;98429.56;5043142;28;20460;-72
2021/11/27 04:50:21;;;;;;;19.97;15.10;;;;;;;2.92;83.60;98430.34;5049264;28;20474;-71
2021/11/27 04:52:46;;;;;;;23.57;17.40;;;;;;;3.80;82.92;98427.91;5043778;28;20584;-71
2021/11/27 04:55:12;;;;;;;24.97;17.90;;;;;;;3.83;82.51;98427.03;5043043;28;20193;-70
2021/11/27 04:57:38;;;;;;;28.53;18.87;;;;;;;3.62;82.22;98436.47;5039600;28;20223;-70
2021/11/27 05:00:11;;;;;;;26.60;17.47;;;;;;;3.47;83.08;98441.63;5039418;28;20425;-73
2021/11/27 05:02:36;;;;;;;24.70;18.10;;;;;;;3.67;82.18;98442.50;5040304;28;20409;-71
2021/11/27 05:05:02;;;;;;;24.10;17.03;;;;;;;3.60;82.49;98442.50;5039118;28;20825;-73
2021/11/27 05:07:27;;;;;;;20.93;15.90;;;;;;;3.33;83.46;98445.06;5039265;28;20166;-73
2021/11/27 05:09:52;;;;;;;25.40;15.90;;;;;;;3.29;82.60;98448.47;5039756;28;20493;-73
2021/11/27 05:12:18;;;;;;;23.70;17.10;;;;;;;4.06;81.08;98442.50;5021786;28;20183;-74
2021/11/27 05:14:43;;;;;;;24.60;17.33;;;;;;;3.61;81.29;98450.22;5039016;28;20228;-72
2021/11/27 05:17:08;;;;;;;19.70;13.83;;;;;;;9.20;83.98;98424.53;5039373;28;20175;-65
2021/11/27 05:19:35;;;;;;;21.57;15.27;;;;;;;4.88;77.86;98448.28;5038728;28;20170;-71
2021/11/27 05:22:00;;;;;;;21.80;15.67;;;;;;;3.99;80.58;98448.50;5038861;28;20189;-71
2021/11/27 05:24:26;;;;;;;20.67;15.50;;;;;;;4.82;80.63;98443.13;5039496;28;20409;-71
2021/11/27 05:26:51;;;;;;;23.20;16.57;;;;;;;3.79;83.32;98451.09;5038773;28;20174;-71
2021/11/27 05:29:16;;;;;;;22.00;15.47;;;;;;;3.61;82.14;98452.78;5038854;28;20251;-71
2021/11/27 05:31:42;;;;;;;25.90;17.27;;;;;;;3.73;81.33;98462.25;5039114;28;20184;-71
2021/11/27 05:36:34;;;;;;;20.53;16.00;;;;;;;4.02;81.53;98456.25;5038642;28;20480;-71
2021/11/27 05:39:00;;;;;;;21.27;17.10;;;;;;;4.21;80.39;98457.94;5038940;28;20163;-71
2021/11/27 05:41:27;;;;;;;22.27;16.43;;;;;;;4.31;80.06;98461.34;5038320;28;20436;-71
2021/11/27 05:43:53;;;;;;;23.60;17.40;;;;;;;4.38;80.12;98460.50;5021508;28;20174;-71
2021/11/27 05:46:18;;;;;;;24.37;16.63;;;;;;;4.30;81.23;98454.50;5038991;28;20436;-71
2021/11/27 05:48:44;;;;;;;20.20;15.10;;;;;;;4.83;77.79;98455.19;5038524;28;20464;-71
2021/11/27 05:51:09;;;;;;;25.03;18.40;;;;;;;4.19;80.55;98464.84;5038228;28;20189;-71
2021/11/27 05:53:35;;;;;;;22.37;16.37;;;;;;;4.01;80.21;98464.84;5049591;28;20213;-71
2021/11/27 05:56:00;;;;;;;22.37;16.37;;;;;;;4.29;79.79;98460.50;5058530;28;20234;-71
2021/11/27 05:58:25;;;;;;;21.53;16.47;;;;;;;4.72;79.84;98465.56;5058461;28;20173;-71
2021/11/27 06:00:52;;;;;;;20.20;15.50;;;;;;;4.53;79.43;98469.03;5058239;28;20265;-71
2021/11/27 06:03:17;;;;;;;22.30;15.93;;;;;;;4.08;80.64;98474.28;5058043;28;20173;-71
2021/11/27 06:05:43;;;;;;;20.53;15.23;;;;;;;3.56;82.84;98479.41;5058997;28;20855;-72
2021/11/27 06:08:08;;;;;;;27.20;17.70;;;;;;;4.02;81.21;98474.31;5057966;28;20206;-72
2021/11/27 06:10:34;;;;;;;20.70;15.60;;;;;;;3.96;81.67;98484.59;5058129;28;20173;-71
2021/11/27 06:13:01;;;;;;;22.43;15.43;;;;;;;3.52;83.06;98484.56;5058419;28;20211;-72
2021/11/27 06:15:26;;;;;;;21.47;16.00;;;;;;;3.66;82.07;98487.16;5039443;28;20440;-72
2021/11/27 06:17:53;;;;;;;23.73;17.60;;;;;;;4.31;82.29;98491.44;5045553;28;20697;-73
2021/11/27 06:20:19;;;;;;;22.93;16.70;;;;;;;4.24;80.38;98485.44;5048989;28;20178;-73
2021/11/27 06:22:44;;;;;;;25.53;17.60;;;;;;;4.21;81.24;98488.03;5038298;28;20701;-72
2021/11/27 06:25:10;;;;;;;24.20;17.13;;;;;;;4.21;78.85;98491.47;5040555;28;20197;-72
2021/11/27 06:27:36;;;;;;;24.30;17.57;;;;;;;4.48;81.29;98488.81;5054424;28;20529;-71
2021/11/27 06:30:01;;;;;;;23.20;15.97;;;;;;;3.99;79.92;98493.22;5061197;28;20183;-72
2021/11/27 06:32:26;;;;;;;22.07;16.20;;;;;;;4.11;79.61;98494.91;5062157;28;20211;-74
2021/11/27 06:34:53;;;;;;;21.17;15.93;;;;;;;4.17;81.72;98492.31;5061648;28;20230;-72
2021/11/27 06:37:22;;;;;;;21.10;15.27;;;;;;;3.36;83.96;98509.44;5061955;28;20169;-72
2021/11/27 06:39:49;;;;;;;25.67;16.80;;;;;;;4.20;81.17;98504.34;5074912;28;20901;-72
2021/11/27 06:42:15;;;;;;;26.90;15.97;;;;;;;3.59;82.29;98506.06;5081922;28;20415;-72
2021/11/27 06:44:46;;;;;;;25.80;18.37;;;;;;;3.44;82.44;98506.03;5082012;28;20473;-72
2021/11/27 06:47:12;;;;;;;21.83;16.47;;;;;;;3.47;81.49;98517.19;5081778;28;20191;-72
2021/11/27 06:49:38;;;;;;;25.83;16.87;;;;;;;4.33;81.58;98511.22;5051045;28;20454;-71
2021/11/27 06:52:03;;;;;;;22.90;16.90;;;;;;;3.83;81.35;98515.53;5061363;28;20436;-71
2021/11/27 06:54:29;;;;;;;23.20;16.80;;;;;;;4.18;81.82;98517.25;5035520;28;20313;-72
2021/11/27 06:56:54;;;;;;;21.40;16.87;;;;;;;4.09;80.41;98529.31;5038667;28;20185;-71
2021/11/27 06:59:19;;;;;;;21.93;16.77;;;;;;;4.49;80.81;98537.00;5053373;28;20178;-72
2021/11/27 07:01:45;;;;;;;23.27;17.37;;;;;;;4.16;80.42;98533.59;5041431;28;20178;-72
2021/11/27 07:04:12;;;;;;;21.83;16.90;;;;;;;3.83;80.33;98543.00;5041777;28;20178;-73
2021/11/27 07:06:38;;;;;;;22.47;16.40;;;;;;;4.44;78.84;98537.00;5041268;28;20182;-72
2021/11/27 07:09:03;;;;;;;22.87;16.37;;;;;;;4.35;80.48;98548.19;5050772;28;20471;-72
2021/11/27 07:11:29;;;;;;;21.30;16.80;;;;;;;3.76;80.64;98555.06;5058786;28;20170;-73
2021/11/27 07:13:54;;;;;;;23.20;16.87;;;;;;;4.22;79.72;98554.19;5057160;28;20193;-71
2021/11/27 07:16:19;;;;;;;21.90;15.90;;;;;;;4.47;79.44;98559.38;5051977;28;20189;-70
2021/11/27 07:18:45;;;;;;;26.13;16.17;;;;;;;4.75;79.37;98560.19;5043816;28;20166;-70
2021/11/27 07:21:12;;;;;;;24.10;18.50;;;;;;;4.62;78.41;98561.91;5040734;28;20547;-70
2021/11/27 07:23:37;;;;;;;18.90;16.23;;;;;;;4.33;78.08;98552.50;5041049;28;20194;-70
2021/11/27 07:26:03;;;;;;;23.40;13.73;;;;;;;3.62;81.07;98559.31;5041108;28;20522;-70
2021/11/27 07:28:28;;;;;;;23.30;15.67;;;;;;;3.65;81.04;98572.19;5036454;28;20422;-72
2021/11/27 07:30:54;;;;;;;24.00;16.53;;;;;;;3.97;81.50;98559.34;5030233;28;20465;-71
2021/11/27 07:33:20;;;;;;;22.73;15.33;;;;;;;3.74;81.69;98554.19;5021497;28;20559;-71
2021/11/27 07:35:46;;;;;;;21.90;15.67;;;;;;;3.87;80.51;98555.06;5022763;28;20209;-71
2021/11/27 07:38:12;;;;;;;20.40;15.43;;;;;;;4.18;80.03;98557.66;5023006;28;20444;-72
2021/11/27 07:40:40;;;;;;;21.57;16.57;;;;;;;4.08;80.84;98568.84;5037140;28;20822;-71
2021/11/27 07:43:05;;;;;;;22.27;16.57;;;;;;;4.31;79.44;98558.50;5037980;28;20201;-70
2021/11/27 07:45:33;;;;;;;24.97;16.07;;;;;;;4.83;78.69;98563.63;5035790;28;20432;-70
2021/11/27 07:47:59;;;;;;;20.80;15.73;;;;;;;4.82;78.61;98567.03;5040489;28;20463;-71
2021/11/27 07:50:24;;;;;;;23.27;16.73;;;;;;;4.28;79.05;98574.84;5040630;28;20428;-71
2021/11/27 07:52:50;;;;;;;24.13;17.50;;;;;;;4.46;79.90;98586.88;5035948;28;20354;-70
2021/11/27 07:55:15;;;;;;;21.30;16.20;;;;;;;3.42;82.48;98579.84;5048425;28;20185;-70
2021/11/27 07:57:40;;;;;;;22.37;16.73;;;;;;;4.01;81.58;98575.69;5040095;28;20553;-70
2021/11/27 08:00:06;;;;;;;20.87;16.83;;;;;;;4.60;79.52;98576.56;5042690;28;20200;-71
2021/11/27 08:02:32;;;;;;;21.93;15.47;;;;;;;3.99;81.85;98587.72;5043973;28;20174;-70
2021/11/27 08:04:57;;;;;;;24.33;16.33;;;;;;;4.41;79.59;98577.41;5042959;28;20436;-70
2021/11/27 08:07:22;;;;;;;25.07;16.70;;;;;;;4.72;78.97;98594.59;5032985;28;20450;-70
2021/11/27 08:09:48;;;;;;;25.60;17.40;;;;;;;4.33;79.95;98585.16;5023487;28;20285;-71
2021/11/27 08:12:13;;;;;;;24.43;17.23;;;;;;;4.30;81.77;98588.63;5031328;28;20260;-70
2021/11/27 08:14:41;;;;;;;24.30;18.30;;;;;;;3.70;81.61;98597.09;5020255;28;20487;-70
2021/11/27 08:17:06;;;;;;;21.30;16.30;;;;;;;3.72;80.38;98597.09;5031893;28;20213;-70
2021/11/27 08:19:32;;;;;;;21.60;15.87;;;;;;;4.70;78.90;98598.91;5040157;28;20420;-70
2021/11/27 08:21:58;;;;;;;22.10;16.67;;;;;;;4.35;79.85;98601.50;5039972;28;20174;-70
2021/11/27 08:24:25;;;;;;;21.77;16.60;;;;;;;4.79;78.56;98598.03;5040539;28;20186;-71
2021/11/27 08:26:51;;;;;;;23.47;17.47;;;;;;;4.00;78.98;98604.91;5039975;28;20203;-71
2021/11/27 08:29:18;;;;;;;24.00;16.47;;;;;;;4.24;80.80;98591.19;5028764;28;20469;-72
2021/11/27 08:31:43;;;;;;;23.10;17.50;;;;;;;4.56;80.12;98598.06;5023194;28;20426;-69
2021/11/27 08:34:08;;;;;;;23.17;16.87;;;;;;;4.86;78.67;98593.72;5032829;28;20823;-72
2021/11/27 08:36:34;;;;;;;22.53;17.10;;;;;;;4.47;78.49;98595.50;5030749;28;20182;-70
2021/11/27 08:38:59;;;;;;;23.03;15.80;;;;;;;4.78;77.89;98611.81;5006487;28;20205;-71
2021/11/27 08:41:25;;;;;;;23.20;17.43;;;;;;;4.11;79.01;98610.09;5019810;28;20179;-71
2021/11/27 08:43:50;;;;;;;20.17;15.87;;;;;;;4.96;78.52;98598.00;5019770;28;20221;-71
2021/11/27 08:46:16;;;;;;;22.27;17.43;;;;;;;5.02;77.50;98608.31;5020391;28;20182;-71
2021/11/27 08:48:41;;;;;;;24.43;17.53;;;;;;;4.68;77.04;98608.38;5019608;28;20473;-70
2021/11/27 08:51:08;;;;;;;22.47;16.30;;;;;;;4.91;77.72;98604.88;5019781;28;20167;-70
2021/11/27 08:53:34;;;;;;;22.57;17.80;;;;;;;5.33;76.44;98597.03;5018956;28;20223;-70
2021/11/27 08:56:00;;;;;;;21.90;16.77;;;;;;;4.97;76.19;98606.63;5002579;28;20418;-70
2021/11/27 08:58:26;;;;;;;17.40;15.00;;;;;;;4.30;78.54;98618.69;5019572;28;20824;-70
2021/11/27 09:00:51;;;;;;;23.43;16.00;;;;;;;4.25;79.63;98612.66;5019894;28;20186;-70
2021/11/27 09:03:16;;;;;;;19.70;15.07;;;;;;;4.09;78.89;98615.25;5019230;28;20193;-70
2021/11/27 09:05:43;;;;;;;24.37;17.13;;;;;;;4.69;78.05;98620.41;5019752;28;20543;-70
2021/11/27 09:08:08;;;;;;;22.13;17.70;;;;;;;4.63;78.58;98630.75;5002147;28;20218;-71
2021/11/27 09:10:34;;;;;;;21.13;16.07;;;;;;;4.27;80.75;98624.72;5019426;28;20422;-71
2021/11/27 09:12:59;;;;;;;22.87;17.03;;;;;;;4.89;78.26;98632.44;5019397;28;20548;-72
2021/11/27 09:15:25;;;;;;;23.03;17.73;;;;;;;5.06;78.07;98620.34;5019229;28;20684;-71
2021/11/27 09:17:51;;;;;;;21.80;16.67;;;;;;;4.27;79.33;98629.88;5019218;28;20170;-71
2021/11/27 09:20:16;;;;;;;22.90;18.23;;;;;;;5.10;76.76;98622.94;5002462;28;20501;-70
2021/11/27 09:22:42;;;;;;;25.47;18.07;;;;;;;4.65;77.71;98631.59;5018875;28;20517;-71
2021/11/27 09:25:08;;;;;;;23.77;17.07;;;;;;;4.27;79.92;98635.03;5018967;28;20419;-71
2021/11/27 09:27:34;;;;;;;24.33;16.90;;;;;;;4.25;81.24;98638.47;5019789;28;20177;-71
2021/11/27 09:30:00;;;;;;;22.33;16.73;;;;;;;4.33;79.28;98636.75;5019583;28;20555;-71
2021/11/27 09:32:25;;;;;;;21.80;16.03;;;;;;;5.01;78.81;98640.16;5019335;28;20479;-69
2021/11/27 09:34:52;;;;;;;23.57;17.27;;;;;;;5.37;75.20;98638.34;5019464;28;20206;-71
2021/11/27 09:37:18;;;;;;;22.70;17.40;;;;;;;5.03;75.48;98641.03;5019166;28;20529;-72
2021/11/27 09:39:45;;;;;;;20.00;16.20;;;;;;;4.46;77.92;98651.38;5019141;28;20417;-70
2021/11/27 09:42:16;;;;;;;21.50;16.10;;;;;;;4.26;nan;98647.94;5019186;28;20175;-71
2021/11/27 09:44:47;;;;;;;22.73;16.63;;;;;;;4.17;78.48;98653.94;5022509;28;20433;-71
2021/11/27 09:47:13;;;;;;;22.57;17.60;;;;;;;4.54;77.24;98656.56;5035587;28;20794;-72
2021/11/27 09:49:39;;;;;;;23.73;17.23;;;;;;;4.87;78.40;98658.25;5038505;28;20464;-70
2021/11/27 09:52:04;;;;;;;21.97;15.90;;;;;;;5.05;77.66;98661.69;5019012;28;20453;-71
2021/11/27 09:54:31;;;;;;;18.37;15.23;;;;;;;3.67;79.24;98661.53;5032057;28;20272;-71
2021/11/27 09:56:56;;;;;;;24.67;16.70;;;;;;;4.37;78.10;98656.53;5038270;28;20213;-72
2021/11/27 09:59:22;;;;;;;22.00;16.70;;;;;;;4.29;77.44;98666.84;5032620;28;20457;-72
2021/11/27 10:01:51;;;;;;;24.57;16.80;;;;;;;5.09;76.54;98663.41;5018217;28;20249;-71
2021/11/27 10:04:17;;;;;;;22.00;17.47;;;;;;;4.80;76.15;98661.69;5028678;28;20182;-71
2021/11/27 10:06:44;;;;;;;19.53;15.80;;;;;;;4.88;77.33;98665.16;5017786;28;20514;-72
2021/11/27 10:09:15;;;;;;;25.80;17.70;;;;;;;4.43;78.02;98666.00;5029223;28;20210;-70
2021/11/27 10:11:41;;;;;;;24.70;18.00;;;;;;;4.74;76.16;98666.88;5032769;28;20445;-71
2021/11/27 10:14:07;;;;;;;21.57;16.50;;;;;;;4.31;78.05;98657.38;5018665;28;20433;-71
2021/11/27 10:16:37;;;;;;;22.73;16.70;;;;;;;4.66;76.17;98663.44;5027835;28;20422;-71
2021/11/27 10:19:06;;;;;;;25.50;18.57;;;;;;;3.93;79.12;98660.75;5015428;28;20416;-70
2021/11/27 10:21:32;;;;;;;21.27;16.30;;;;;;;4.35;77.98;98664.25;5035143;28;20864;-71
2021/11/27 10:23:58;;;;;;;22.10;17.73;;;;;;;5.15;76.15;98667.69;5037841;28;20448;-71
2021/11/27 10:26:37;;;;;;;20.30;16.50;;;;;;;5.28;74.70;98674.56;5011656;28;20225;-71
2021/11/27 10:29:17;;;;;;;22.93;17.30;;;;;;;5.10;76.14;98667.72;5029051;28;20469;-70
2021/11/27 10:31:43;;;;;;;21.63;17.10;;;;;;;4.39;76.79;98680.63;5019117;28;20425;-71
2021/11/27 10:34:15;;;;;;;22.00;17.23;;;;;;;4.89;75.63;98671.16;5031929;28;20484;-70
2021/11/27 10:36:40;;;;;;;25.63;18.50;;;;;;;4.84;75.95;98675.47;5024812;28;20430;-70
2021/11/27 10:39:07;;;;;;;22.60;16.20;;;;;;;4.68;76.82;98680.66;5029126;28;20464;-70
2021/11/27 10:41:37;;;;;;;20.67;16.20;;;;;;;4.34;78.30;98664.25;5017898;28;20233;-71
2021/11/27 10:44:05;;;;;;;22.13;16.40;;;;;;;4.86;76.12;98668.59;5022179;28;20430;-71
2021/11/27 10:46:34;;;;;;;22.07;16.67;;;;;;;4.85;76.50;98669.44;5020242;28;20429;-71
2021/11/27 10:48:59;;;;;;;23.90;17.17;;;;;;;4.49;77.01;98668.59;5003012;28;20444;-72
2021/11/27 10:51:25;;;;;;;23.20;16.27;;;;;;;4.85;76.21;98675.47;5006633;28;20649;-71
2021/11/27 10:53:59;;;;;;;21.43;17.03;;;;;;;4.70;75.65;98671.16;5021441;28;20234;-71
2021/11/27 10:56:45;;;;;;;23.87;17.47;;;;;;;5.01;75.78;98666.00;5002082;28;20400;-72
2021/11/27 10:59:12;;;;;;;23.73;17.27;;;;;;;5.14;74.85;98671.13;5018644;28;20388;-71
2021/11/27 11:02:01;;;;;;;22.33;17.60;;;;;;;5.00;75.11;98669.41;5001064;28;20417;-71
2021/11/27 11:04:27;;;;;;;22.17;16.90;;;;;;;5.06;76.67;98669.44;5018298;28;20812;-72
2021/11/27 11:07:13;;;;;;;22.17;16.50;;;;;;;4.67;76.08;98671.19;5017909;28;20472;-72
2021/11/27 11:10:00;;;;;;;21.30;16.50;;;;;;;4.00;78.75;98677.09;5005522;28;20242;-71
2021/11/27 11:12:41;;;;;;;27.30;18.17;;;;;;;3.68;79.03;98673.56;5022920;28;20380;-71
2021/11/27 11:15:14;;;;;;;21.60;17.50;;;;;;;4.58;77.86;98689.22;5018916;28;20477;-71
2021/11/27 11:17:43;;;;;;;22.00;16.50;;;;;;;4.41;77.61;98691.81;5004236;28;20410;-71
2021/11/27 11:20:17;;;;;;;26.80;18.23;;;;;;;4.70;79.26;98685.81;5004573;28;20829;-71
2021/11/27 11:23:03;;;;;;;20.97;16.93;;;;;;;3.83;79.21;98689.91;5021381;28;20464;-70
2021/11/27 11:25:29;;;;;;;24.37;16.27;;;;;;;4.60;77.44;98682.38;5021699;28;20425;-71